Aviation WX

[Source: ADDS]
METAR
KFKL 181642Z AUTO 27005KT 10SM BKN028 RMK AO2 FZRANO $ =
KFKL 181509Z 1815/1912 33005KT P6SM OVC025 FM181600 32006KT P6SM SCT025 FM182000 31006KT P6SM SKC
TAF
KFKL 181509Z 1815/1912 33005KT P6SM OVC025 FM181600 32006KT P6SM SCT025 FM182000 31006KT P6SM SKC =

Clarion Airport T-Shirts

small